createdAt,value
2018-07-07T00:00:23.581Z,100.00
2018-07-07T00:02:52.096Z,100.00
2018-07-07T00:05:20.574Z,100.00
2018-07-07T00:07:49.075Z,100.00
2018-07-07T00:10:17.938Z,100.00
2018-07-07T00:12:46.633Z,100.00
2018-07-07T00:15:19.107Z,100.00
2018-07-07T00:17:48.240Z,100.00
2018-07-07T00:20:17.404Z,100.00
2018-07-07T00:22:46.417Z,100.00
2018-07-07T00:25:17.251Z,100.00
2018-07-07T00:27:46.527Z,100.00
2018-07-07T00:30:15.553Z,100.00
2018-07-07T00:32:44.062Z,100.00
2018-07-07T00:35:12.700Z,100.00
2018-07-07T00:37:41.141Z,100.00
2018-07-07T00:40:10.512Z,100.00
2018-07-07T00:42:39.547Z,100.00
2018-07-07T00:45:08.080Z,100.00
2018-07-07T00:47:36.559Z,100.00
2018-07-07T00:50:05.469Z,100.00
2018-07-07T00:52:33.926Z,100.00
2018-07-07T00:55:02.352Z,100.00
2018-07-07T00:57:30.801Z,100.00
2018-07-07T00:59:59.239Z,100.00
2018-07-07T01:02:27.721Z,100.00
2018-07-07T01:04:56.548Z,100.00
2018-07-07T01:07:25.078Z,100.00
2018-07-07T01:09:53.523Z,100.00
2018-07-07T01:12:21.963Z,100.00
2018-07-07T01:14:50.648Z,100.00
2018-07-07T01:17:19.088Z,100.00
2018-07-07T01:19:47.549Z,100.00
2018-07-07T01:22:16.051Z,100.00
2018-07-07T01:24:44.828Z,100.00
2018-07-07T01:27:13.267Z,100.00
2018-07-07T01:29:42.574Z,100.00
2018-07-07T01:32:11.234Z,100.00
2018-07-07T01:34:39.942Z,100.00
2018-07-07T01:37:08.886Z,100.00
2018-07-07T01:39:37.304Z,100.00
2018-07-07T01:42:06.322Z,100.00
2018-07-07T01:44:34.839Z,100.00
2018-07-07T01:47:03.436Z,100.00
2018-07-07T01:49:31.883Z,100.00
2018-07-07T01:52:00.345Z,100.00
2018-07-07T01:54:28.831Z,100.00
2018-07-07T01:56:57.266Z,100.00
2018-07-07T01:59:25.715Z,100.00
2018-07-07T02:01:54.645Z,100.00
2018-07-07T02:04:23.047Z,100.00
2018-07-07T02:06:51.526Z,100.00
2018-07-07T02:09:20.227Z,100.00
2018-07-07T02:11:49.011Z,100.00
2018-07-07T02:14:17.443Z,100.00
2018-07-07T02:16:46.211Z,100.00
2018-07-07T02:19:14.662Z,100.00
2018-07-07T02:21:43.099Z,100.00
2018-07-07T02:24:11.557Z,100.00
2018-07-07T02:26:40.053Z,100.00
2018-07-07T02:29:08.499Z,100.00
2018-07-07T02:31:36.939Z,100.00
2018-07-07T02:34:05.475Z,100.00
2018-07-07T02:36:33.947Z,100.00
2018-07-07T02:39:02.690Z,100.00
2018-07-07T02:41:31.091Z,100.00
2018-07-07T02:43:59.677Z,100.00
2018-07-07T02:46:28.249Z,100.00
2018-07-07T02:48:56.673Z,100.00
2018-07-07T02:51:25.305Z,100.00
2018-07-07T02:53:53.723Z,100.00
2018-07-07T02:56:22.146Z,100.00
2018-07-07T02:58:50.680Z,100.00
2018-07-07T03:01:19.124Z,100.00
2018-07-07T03:03:47.572Z,100.00
2018-07-07T03:06:15.987Z,100.00
2018-07-07T03:08:44.464Z,100.00
2018-07-07T03:11:12.955Z,100.00
2018-07-07T03:13:41.452Z,100.00
2018-07-07T03:16:09.894Z,100.00
2018-07-07T03:18:38.345Z,100.00
2018-07-07T03:21:06.844Z,100.00
2018-07-07T03:23:35.272Z,100.00
2018-07-07T03:26:04.659Z,100.00
2018-07-07T03:28:33.099Z,100.00
2018-07-07T03:31:01.571Z,100.00
2018-07-07T03:34:32.844Z,100.00
2018-07-07T03:37:01.283Z,100.00
2018-07-07T03:39:30.021Z,100.00
2018-07-07T03:41:58.743Z,100.00
2018-07-07T03:44:27.172Z,100.00
2018-07-07T03:46:55.628Z,100.00
2018-07-07T03:49:24.120Z,100.00
2018-07-07T03:51:52.577Z,100.00
2018-07-07T03:54:21.043Z,100.00
2018-07-07T03:56:49.614Z,100.00
2018-07-07T03:59:18.307Z,100.00
2018-07-07T04:01:47.012Z,100.00
2018-07-07T04:04:15.500Z,100.00
2018-07-07T04:06:43.967Z,100.00
2018-07-07T04:09:12.413Z,100.00
2018-07-07T04:11:40.960Z,100.00
2018-07-07T04:14:10.371Z,100.00
2018-07-07T04:16:38.838Z,100.00
2018-07-07T04:19:07.334Z,100.00
2018-07-07T04:21:35.787Z,100.00
2018-07-07T04:24:04.768Z,100.00
2018-07-07T04:26:33.223Z,100.00
2018-07-07T04:29:01.649Z,100.00
2018-07-07T04:31:30.111Z,100.00
2018-07-07T04:33:58.565Z,100.00
2018-07-07T04:36:27.022Z,100.00
2018-07-07T04:38:55.439Z,100.00
2018-07-07T04:41:23.844Z,100.00
2018-07-07T04:43:52.718Z,100.00
2018-07-07T04:46:21.144Z,100.00
2018-07-07T04:48:49.651Z,100.00
2018-07-07T04:51:18.103Z,100.00
2018-07-07T04:53:46.567Z,100.00
2018-07-07T04:56:15.563Z,100.00
2018-07-07T04:58:44.072Z,100.00
2018-07-07T05:01:12.526Z,100.00
2018-07-07T05:03:40.964Z,100.00
2018-07-07T05:06:09.483Z,100.00
2018-07-07T05:08:37.963Z,100.00
2018-07-07T05:11:06.775Z,100.00
2018-07-07T05:13:35.300Z,100.00
2018-07-07T05:16:03.746Z,100.00
2018-07-07T05:18:32.257Z,100.00
2018-07-07T05:21:00.742Z,100.00
2018-07-07T05:23:29.183Z,100.00
2018-07-07T05:25:57.791Z,100.00
2018-07-07T05:28:26.244Z,100.00
2018-07-07T05:30:54.743Z,100.00
2018-07-07T05:33:23.207Z,100.00
2018-07-07T05:35:51.728Z,100.00
2018-07-07T05:38:20.968Z,100.00
2018-07-07T05:40:49.384Z,100.00
2018-07-07T05:43:17.880Z,100.00
2018-07-07T05:45:46.288Z,100.00
2018-07-07T05:48:14.724Z,100.00
2018-07-07T05:50:43.163Z,100.00
2018-07-07T05:53:11.623Z,100.00
2018-07-07T05:55:40.252Z,100.00
2018-07-07T05:58:08.705Z,100.00
2018-07-07T06:00:37.131Z,100.00
2018-07-07T06:03:05.621Z,100.00
2018-07-07T06:05:34.064Z,100.00
2018-07-07T06:08:02.584Z,100.00
2018-07-07T06:10:31.134Z,100.00
2018-07-07T06:12:59.593Z,100.00
2018-07-07T06:15:28.025Z,100.00
2018-07-07T06:17:56.440Z,100.00
2018-07-07T06:20:24.884Z,100.00
2018-07-07T06:22:53.363Z,100.00
2018-07-07T06:25:21.863Z,100.00
2018-07-07T06:27:50.307Z,100.00
2018-07-07T06:30:18.731Z,100.00
2018-07-07T06:32:47.167Z,100.00
2018-07-07T06:35:15.618Z,100.00
2018-07-07T06:37:44.088Z,100.00
2018-07-07T06:40:12.558Z,100.00
2018-07-07T06:42:40.983Z,100.00
2018-07-07T06:45:09.424Z,100.00
2018-07-07T06:47:37.870Z,100.00
2018-07-07T06:50:06.328Z,100.00
2018-07-07T06:52:34.864Z,100.00
2018-07-07T06:55:03.344Z,100.00
2018-07-07T06:57:31.809Z,100.00
2018-07-07T07:00:00.297Z,100.00
2018-07-07T07:02:28.765Z,100.00
2018-07-07T07:04:57.620Z,100.00
2018-07-07T07:07:26.065Z,100.00
2018-07-07T07:09:54.561Z,100.00
2018-07-07T07:12:23.189Z,100.00
2018-07-07T07:14:51.779Z,100.00
2018-07-07T07:17:20.367Z,100.00
2018-07-07T07:19:48.886Z,100.00
2018-07-07T07:22:17.295Z,100.00
2018-07-07T07:24:45.968Z,100.00
2018-07-07T07:27:14.406Z,100.00
2018-07-07T07:29:42.812Z,100.00
2018-07-07T07:32:11.398Z,100.00
2018-07-07T07:34:39.853Z,100.00
2018-07-07T07:37:08.298Z,100.00
2018-07-07T07:39:36.715Z,100.00
2018-07-07T07:42:05.228Z,100.00
2018-07-07T07:44:33.700Z,100.00
2018-07-07T07:47:02.104Z,100.00
2018-07-07T07:49:30.564Z,100.00
2018-07-07T07:51:59.000Z,100.00
2018-07-07T07:54:27.442Z,100.00
2018-07-07T07:56:56.186Z,100.00
2018-07-07T07:59:24.587Z,100.00
2018-07-07T08:01:53.051Z,100.00
2018-07-07T08:04:21.503Z,100.00
2018-07-07T08:06:49.911Z,100.00
2018-07-07T08:09:18.392Z,100.00
2018-07-07T08:11:46.838Z,100.00
2018-07-07T08:14:15.293Z,100.00
2018-07-07T08:16:43.715Z,100.00
2018-07-07T08:19:12.146Z,100.00
2018-07-07T08:21:40.597Z,100.00
2018-07-07T08:24:09.089Z,100.00
2018-07-07T08:26:37.516Z,100.00
2018-07-07T08:29:05.955Z,100.00
2018-07-07T08:31:34.404Z,100.00
2018-07-07T08:34:02.896Z,100.00
2018-07-07T08:36:31.431Z,100.00
2018-07-07T08:38:59.837Z,100.00
2018-07-07T08:41:28.295Z,100.00
2018-07-07T08:43:56.732Z,100.00
2018-07-07T08:46:25.184Z,100.00
2018-07-07T08:48:53.600Z,100.00
2018-07-07T08:51:22.083Z,98.12
2018-07-07T08:53:50.533Z,99.66
2018-07-07T08:56:18.969Z,96.78
2018-07-07T08:58:47.411Z,97.20
2018-07-07T09:01:15.843Z,96.08
2018-07-07T09:03:44.283Z,94.47
2018-07-07T09:06:12.720Z,93.37
2018-07-07T09:08:41.145Z,95.31
2018-07-07T09:11:10.021Z,94.71
2018-07-07T09:13:38.463Z,93.65
2018-07-07T09:16:06.914Z,89.85
2018-07-07T09:18:35.412Z,93.97
2018-07-07T09:21:03.833Z,92.18
2018-07-07T09:23:32.292Z,87.43
2018-07-07T09:26:00.708Z,87.25
2018-07-07T09:28:29.138Z,87.29
2018-07-07T09:30:57.691Z,88.49
2018-07-07T09:33:26.092Z,86.38
2018-07-07T09:35:54.523Z,83.92
2018-07-07T09:38:22.991Z,81.28
2018-07-07T09:40:51.435Z,76.59
2018-07-07T09:43:19.895Z,77.47
2018-07-07T09:45:48.571Z,71.88
2018-07-07T09:48:17.031Z,73.65
2018-07-07T09:50:45.492Z,67.87
2018-07-07T09:54:16.487Z,69.38
2018-07-07T09:56:44.924Z,66.84
2018-07-07T09:59:13.364Z,65.12
2018-07-07T10:01:41.843Z,62.62
2018-07-07T10:04:10.332Z,61.92
2018-07-07T10:06:38.739Z,61.70
2018-07-07T10:09:07.784Z,62.26
2018-07-07T10:11:36.251Z,63.99
2018-07-07T10:14:04.711Z,63.58
2018-07-07T10:16:33.379Z,63.09
2018-07-07T10:19:01.815Z,65.19
2018-07-07T10:21:30.268Z,65.96
2018-07-07T10:23:58.720Z,66.20
2018-07-07T10:26:27.202Z,67.59
2018-07-07T10:28:55.654Z,64.97
2018-07-07T10:31:24.039Z,62.57
2018-07-07T10:33:52.875Z,61.87
2018-07-07T10:36:21.393Z,60.59
2018-07-07T10:38:49.899Z,58.34
2018-07-07T10:41:18.432Z,60.45
2018-07-07T10:43:46.863Z,59.69
2018-07-07T10:46:15.322Z,58.29
2018-07-07T10:48:43.739Z,57.85
2018-07-07T10:51:12.155Z,56.41
2018-07-07T10:53:40.598Z,56.62
2018-07-07T10:56:09.063Z,55.07
2018-07-07T10:58:37.526Z,54.21
2018-07-07T11:01:06.132Z,54.81
2018-07-07T11:03:34.572Z,52.29
2018-07-07T11:06:03.044Z,54.31
2018-07-07T11:08:31.519Z,54.64
2018-07-07T11:11:00.023Z,56.99
2018-07-07T11:13:28.445Z,53.87
2018-07-07T11:15:56.913Z,54.46
2018-07-07T11:18:25.335Z,54.51
2018-07-07T11:20:53.779Z,54.31
2018-07-07T11:23:22.225Z,53.16
2018-07-07T11:25:50.659Z,51.55
2018-07-07T11:28:19.154Z,55.05
2018-07-07T11:30:47.622Z,53.80
2018-07-07T11:33:16.040Z,54.24
2018-07-07T11:35:44.477Z,52.21
2018-07-07T11:39:15.292Z,48.41
2018-07-07T11:41:43.748Z,46.04
2018-07-07T11:44:12.178Z,46.28
2018-07-07T11:46:40.652Z,48.92
2018-07-07T11:49:09.104Z,48.92
2018-07-07T11:51:37.564Z,47.54
2018-07-07T11:54:06.711Z,48.22
2018-07-07T11:56:35.123Z,44.54
2018-07-07T11:59:03.988Z,44.18
2018-07-07T12:01:32.711Z,42.37
2018-07-07T12:04:01.143Z,41.37
2018-07-07T12:06:29.561Z,40.95
2018-07-07T12:08:57.988Z,41.05
2018-07-07T12:11:26.467Z,42.13
2018-07-07T12:13:54.833Z,43.57
2018-07-07T12:16:23.240Z,40.75
2018-07-07T12:18:51.676Z,43.24
2018-07-07T12:21:20.144Z,43.97
2018-07-07T12:23:48.591Z,46.28
2018-07-07T12:26:17.014Z,47.53
2018-07-07T12:28:45.430Z,45.65
2018-07-07T12:31:14.049Z,46.58
2018-07-07T12:33:42.611Z,44.88
2018-07-07T12:36:11.106Z,46.03
2018-07-07T12:38:39.504Z,45.98
2018-07-07T12:41:07.939Z,46.01
2018-07-07T12:43:36.453Z,44.37
2018-07-07T12:46:04.875Z,45.58
2018-07-07T12:48:33.334Z,46.79
2018-07-07T12:51:01.717Z,45.13
2018-07-07T12:53:30.141Z,42.96
2018-07-07T12:55:59.100Z,45.71
2018-07-07T12:58:27.500Z,43.24
2018-07-07T13:00:55.959Z,42.18
2018-07-07T13:03:24.372Z,42.17
2018-07-07T13:05:53.000Z,44.09
2018-07-07T13:08:21.420Z,41.39
2018-07-07T13:10:49.870Z,41.61
2018-07-07T13:13:18.311Z,41.34
2018-07-07T13:15:46.792Z,43.49
2018-07-07T13:18:15.245Z,43.13
2018-07-07T13:20:44.044Z,44.16
2018-07-07T13:23:12.428Z,44.35
2018-07-07T13:25:40.881Z,43.73
2018-07-07T13:28:09.728Z,44.59
2018-07-07T13:30:38.224Z,42.32
2018-07-07T13:33:07.147Z,44.14
2018-07-07T13:35:35.568Z,41.33
2018-07-07T13:38:04.092Z,42.73
2018-07-07T13:40:32.582Z,44.25
2018-07-07T13:43:01.060Z,43.02
2018-07-07T13:45:29.538Z,39.18
2018-07-07T13:47:57.949Z,39.61
2018-07-07T13:50:26.391Z,39.72
2018-07-07T13:52:54.851Z,38.81
2018-07-07T13:55:23.332Z,39.81
2018-07-07T13:57:51.765Z,41.16
2018-07-07T14:00:20.228Z,37.32
2018-07-07T14:02:48.700Z,38.83
2018-07-07T14:05:17.094Z,37.79
2018-07-07T14:07:45.746Z,35.21
2018-07-07T14:10:14.179Z,35.30
2018-07-07T14:12:42.637Z,32.79
2018-07-07T14:15:11.055Z,34.94
2018-07-07T14:17:39.503Z,32.25
2018-07-07T14:20:07.998Z,31.39
2018-07-07T14:22:36.643Z,31.29
2018-07-07T14:25:05.135Z,32.60
2018-07-07T14:27:33.584Z,33.32
2018-07-07T14:30:02.083Z,33.75
2018-07-07T14:32:30.512Z,33.31
2018-07-07T14:34:59.180Z,33.18
2018-07-07T14:37:28.380Z,34.56
2018-07-07T14:39:58.932Z,34.25
2018-07-07T14:42:49.775Z,33.31
2018-07-07T14:45:24.289Z,34.33
2018-07-07T14:47:53.772Z,32.49
2018-07-07T14:50:22.519Z,31.10
2018-07-07T14:52:50.960Z,32.39
2018-07-07T14:55:20.933Z,32.39
2018-07-07T14:57:49.544Z,33.46
2018-07-07T15:00:25.776Z,31.78
2018-07-07T15:02:55.476Z,32.05
2018-07-07T15:05:23.971Z,32.72
2018-07-07T15:07:52.419Z,34.88
2018-07-07T15:10:20.915Z,30.28
2018-07-07T15:12:49.677Z,30.52
2018-07-07T15:15:18.131Z,28.94
2018-07-07T15:17:47.405Z,27.70
2018-07-07T15:20:15.868Z,27.87
2018-07-07T15:22:44.490Z,26.87
2018-07-07T15:25:12.883Z,30.26
2018-07-07T15:27:41.296Z,30.69
2018-07-07T15:30:10.728Z,29.79
2018-07-07T15:32:39.474Z,28.43
2018-07-07T15:35:07.948Z,28.81
2018-07-07T15:37:36.514Z,28.22
2018-07-07T15:40:05.386Z,27.89
2018-07-07T15:42:34.511Z,26.99
2018-07-07T15:45:02.944Z,28.04
2018-07-07T15:47:31.400Z,29.05
2018-07-07T15:50:00.055Z,29.32
2018-07-07T15:52:28.466Z,28.90
2018-07-07T15:54:57.145Z,29.65
2018-07-07T15:57:25.736Z,31.75
2018-07-07T15:59:54.223Z,32.00
2018-07-07T16:02:22.659Z,29.26
2018-07-07T16:04:51.084Z,29.52
2018-07-07T16:07:19.551Z,29.28
2018-07-07T16:09:48.015Z,31.32
2018-07-07T16:12:16.451Z,30.02
2018-07-07T16:14:44.880Z,30.58
2018-07-07T16:17:13.308Z,29.28
2018-07-07T16:19:41.867Z,29.03
2018-07-07T16:22:10.389Z,28.51
2018-07-07T16:24:39.424Z,26.59
2018-07-07T16:27:07.852Z,28.77
2018-07-07T16:29:36.336Z,26.96
2018-07-07T16:32:04.824Z,26.32
2018-07-07T16:34:33.229Z,28.58
2018-07-07T16:37:02.024Z,26.25
2018-07-07T16:39:30.477Z,27.66
2018-07-07T16:41:58.996Z,27.01
2018-07-07T16:44:27.978Z,27.13
2018-07-07T16:46:56.880Z,25.03
2018-07-07T16:49:25.536Z,28.05
2018-07-07T16:51:54.672Z,27.47
2018-07-07T16:54:23.167Z,27.19
2018-07-07T16:56:52.303Z,25.82
2018-07-07T16:59:20.763Z,26.57
2018-07-07T17:01:50.926Z,26.80
2018-07-07T17:04:19.399Z,27.73
2018-07-07T17:06:48.147Z,26.89
2018-07-07T17:09:17.000Z,26.76
2018-07-07T17:11:45.533Z,27.15
2018-07-07T17:14:14.416Z,27.22
2018-07-07T17:16:44.539Z,26.57
2018-07-07T17:19:14.940Z,27.62
2018-07-07T17:21:44.664Z,26.77
2018-07-07T17:24:13.816Z,26.85
2018-07-07T17:26:42.278Z,26.91
2018-07-07T17:29:11.145Z,28.69
2018-07-07T17:31:40.008Z,27.62
2018-07-07T17:34:08.474Z,27.61
2018-07-07T17:36:37.540Z,31.57
2018-07-07T17:39:06.088Z,31.71
2018-07-07T17:41:35.276Z,31.67
2018-07-07T17:44:03.759Z,34.15
2018-07-07T17:46:32.214Z,35.06
2018-07-07T17:49:01.019Z,36.63
2018-07-07T17:51:30.364Z,37.76
2018-07-07T17:54:00.290Z,37.70
2018-07-07T17:56:29.450Z,38.36
2018-07-07T17:58:58.386Z,39.02
2018-07-07T18:01:26.798Z,38.42
2018-07-07T18:03:55.270Z,39.33
2018-07-07T18:06:23.805Z,38.31
2018-07-07T18:08:52.477Z,38.59
2018-07-07T18:11:20.956Z,37.40
2018-07-07T18:13:49.380Z,38.41
2018-07-07T18:16:17.958Z,36.38
2018-07-07T18:18:46.407Z,35.26
2018-07-07T18:21:14.936Z,34.78
2018-07-07T18:23:43.395Z,34.84
2018-07-07T18:26:11.844Z,34.77
2018-07-07T18:28:40.394Z,35.41
2018-07-07T18:31:08.875Z,34.46
2018-07-07T18:33:37.659Z,36.07
2018-07-07T18:36:06.225Z,34.81
2018-07-07T18:38:34.654Z,35.86
2018-07-07T18:41:03.123Z,36.67
2018-07-07T18:43:31.756Z,39.71
2018-07-07T18:49:31.268Z,42.86
2018-07-07T18:51:59.740Z,45.48
2018-07-07T18:54:28.190Z,45.12
2018-07-07T18:56:56.606Z,47.49
2018-07-07T18:59:25.037Z,45.69
2018-07-07T19:01:53.560Z,47.84
2018-07-07T19:04:22.104Z,48.26
2018-07-07T19:06:50.575Z,48.14
2018-07-07T19:09:19.258Z,49.09
2018-07-07T19:11:47.678Z,48.48
2018-07-07T19:14:16.411Z,51.96
2018-07-07T19:16:45.148Z,54.05
2018-07-07T19:19:13.592Z,50.78
2018-07-07T19:21:47.237Z,54.98
2018-07-07T19:24:21.129Z,51.70
2018-07-07T19:26:53.449Z,52.42
2018-07-07T19:29:23.011Z,54.09
2018-07-07T19:31:56.617Z,54.48
2018-07-07T19:34:30.558Z,54.41
2018-07-07T19:37:04.295Z,54.69
2018-07-07T19:39:32.742Z,55.47
2018-07-07T19:42:01.144Z,55.27
2018-07-07T19:44:29.563Z,55.64
2018-07-07T19:46:58.020Z,56.34
2018-07-07T19:49:27.372Z,55.83
2018-07-07T19:51:55.864Z,56.06
2018-07-07T19:54:24.378Z,57.30
2018-07-07T19:56:52.847Z,57.70
2018-07-07T19:59:21.235Z,58.60
2018-07-07T20:01:49.664Z,59.29
2018-07-07T20:04:18.129Z,60.18
2018-07-07T20:06:46.564Z,61.74
2018-07-07T20:09:14.999Z,63.17
2018-07-07T20:11:43.474Z,65.29
2018-07-07T20:14:13.259Z,65.24
2018-07-07T20:16:52.837Z,66.30
2018-07-07T20:19:22.849Z,69.38
2018-07-07T20:21:59.201Z,66.14
2018-07-07T20:24:38.020Z,67.68
2018-07-07T20:27:12.885Z,66.56
2018-07-07T20:29:41.500Z,69.22
2018-07-07T20:32:15.153Z,70.44
2018-07-07T20:34:43.565Z,72.33
2018-07-07T20:37:12.011Z,72.39
2018-07-07T20:39:40.439Z,72.39
2018-07-07T20:42:08.914Z,72.50
2018-07-07T20:44:37.326Z,74.19
2018-07-07T20:47:06.021Z,73.91
2018-07-07T20:49:34.468Z,74.07
2018-07-07T20:52:03.207Z,74.71
2018-07-07T20:54:31.914Z,77.17
2018-07-07T20:57:00.332Z,79.57
2018-07-07T20:59:28.847Z,78.04
2018-07-07T21:01:57.318Z,79.80
2018-07-07T21:04:25.765Z,82.34
2018-07-07T21:06:54.450Z,82.07
2018-07-07T21:09:22.924Z,82.53
2018-07-07T21:11:51.401Z,82.54
2018-07-07T21:14:19.836Z,82.86
2018-07-07T21:16:48.585Z,85.26
2018-07-07T21:19:17.030Z,82.58
2018-07-07T21:24:44.235Z,84.01
2018-07-07T21:27:12.725Z,82.85
2018-07-07T21:29:41.181Z,82.32
2018-07-07T21:32:09.683Z,82.15
2018-07-07T21:34:38.396Z,83.39
2018-07-07T21:37:06.859Z,84.61
2018-07-07T21:39:35.299Z,84.64
2018-07-07T21:42:03.790Z,85.42
2018-07-07T21:44:32.418Z,86.84
2018-07-07T21:47:00.967Z,86.51
2018-07-07T21:49:29.598Z,85.92
2018-07-07T21:51:58.059Z,88.23
2018-07-07T21:54:26.524Z,88.44
2018-07-07T21:56:54.974Z,89.86
2018-07-07T21:59:24.079Z,92.36
2018-07-07T22:01:58.753Z,92.89
2018-07-07T22:04:33.304Z,91.98
2018-07-07T22:07:08.041Z,92.40
2018-07-07T22:09:37.331Z,91.71
2018-07-07T22:12:06.227Z,91.72
2018-07-07T22:14:34.756Z,95.11
2018-07-07T22:17:03.556Z,96.34
2018-07-07T22:19:32.023Z,94.59
2018-07-07T22:22:02.276Z,94.07
2018-07-07T22:24:30.792Z,92.56
2018-07-07T22:27:03.728Z,91.84
2018-07-07T22:29:32.224Z,90.26
2018-07-07T22:32:02.011Z,89.21
2018-07-07T22:34:32.552Z,90.56
2018-07-07T22:37:01.428Z,91.09
2018-07-07T22:39:33.230Z,92.74
2018-07-07T22:42:02.699Z,94.98
2018-07-07T22:44:31.604Z,93.91
2018-07-07T22:47:00.082Z,100.00
2018-07-07T22:49:29.280Z,100.00
2018-07-07T22:51:57.746Z,100.00
2018-07-07T22:54:26.261Z,100.00
2018-07-07T22:56:54.827Z,100.00
2018-07-07T22:59:23.337Z,100.00
2018-07-07T23:01:51.778Z,100.00
2018-07-07T23:04:20.202Z,100.00
2018-07-07T23:06:48.952Z,100.00
2018-07-07T23:09:18.224Z,100.00
2018-07-07T23:11:46.767Z,100.00
2018-07-07T23:14:15.340Z,100.00
2018-07-07T23:16:43.804Z,100.00
2018-07-07T23:19:12.412Z,100.00
2018-07-07T23:21:40.878Z,100.00
2018-07-07T23:24:09.646Z,100.00
2018-07-07T23:26:38.111Z,100.00
2018-07-07T23:29:06.578Z,100.00
2018-07-07T23:31:35.552Z,100.00
2018-07-07T23:34:04.608Z,100.00
2018-07-07T23:36:33.240Z,100.00
2018-07-07T23:39:01.702Z,100.00
2018-07-07T23:41:30.124Z,100.00
2018-07-07T23:43:58.626Z,100.00
2018-07-07T23:46:27.097Z,100.00
2018-07-07T23:48:55.560Z,100.00
2018-07-07T23:51:23.998Z,100.00
2018-07-07T23:53:52.513Z,100.00
2018-07-07T23:56:21.046Z,100.00
2018-07-07T23:58:49.571Z,100.00
